Time;durP1;ratioP1;P1;durP2;ratioP2;P2;SDS_P1;SDS_P2;PMS_P1;PMS_P2;Temp;Humidity;BMP_temperature;BMP_pressure;BME280_temperature;BME280_humidity;BME280_pressure;Samples;Min_cycle;Max_cycle;Signal;HPM_P1;HPM_P2
2022/01/04 00:00:21;;;;;;;;;;;12.80;91.30;;;;;;5007771;28;19917;-60
2022/01/04 00:02:46;;;;;;;;;;;12.80;91.30;;;;;;5006616;28;19949;-60
2022/01/04 00:05:12;;;;;;;;;;;12.80;91.30;;;;;;5023514;28;20018;-60
2022/01/04 00:07:37;;;;;;;;;;;12.80;91.20;;;;;;4990454;28;20436;-60
2022/01/04 00:10:03;;;;;;;;;;;12.70;91.10;;;;;;4990622;28;19919;-61
2022/01/04 00:15:13;;;;;;;;;;;12.70;91.00;;;;;;5010059;28;19915;-60
2022/01/04 00:17:38;;;;;;;;;;;12.70;90.90;;;;;;5005909;28;19921;-60
2022/01/04 00:20:04;;;;;;;;;;;12.70;90.90;;;;;;4990303;28;19921;-60
2022/01/04 00:22:30;;;;;;;;;;;12.70;90.90;;;;;;5022484;28;19916;-60
2022/01/04 00:24:55;;;;;;;;;;;12.70;91.00;;;;;;4990830;28;20409;-62
2022/01/04 00:27:21;;;;;;;;;;;12.70;91.00;;;;;;5006317;28;19913;-59
2022/01/04 00:29:46;;;;;;;;;;;12.70;90.90;;;;;;4989553;28;19978;-61
2022/01/04 00:32:12;;;;;;;;;;;12.70;90.90;;;;;;5004071;28;19932;-60
2022/01/04 00:34:37;;;;;;;;;;;12.70;91.00;;;;;;4990225;28;19925;-60
2022/01/04 00:37:03;;;;;;;;;;;12.70;91.00;;;;;;5005304;28;19943;-60
2022/01/04 00:39:28;;;;;;;;;;;12.70;90.90;;;;;;5006606;28;19963;-60
2022/01/04 00:41:54;;;;;;;;;;;12.70;91.00;;;;;;5005468;28;19959;-60
2022/01/04 00:44:19;;;;;;;;;;;12.70;90.90;;;;;;4991158;28;19932;-60
2022/01/04 00:46:45;;;;;;;;;;;12.70;90.90;;;;;;5005601;28;19909;-61
2022/01/04 00:49:10;;;;;;;;;;;12.70;90.80;;;;;;5021474;28;19913;-59
2022/01/04 00:51:37;;;;;;;;;;;12.70;90.80;;;;;;4990575;28;19936;-60
2022/01/04 00:54:02;;;;;;;;;;;12.60;90.70;;;;;;5005504;28;19909;-60
2022/01/04 00:56:28;;;;;;;;;;;12.60;90.70;;;;;;5005480;28;19991;-60
2022/01/04 00:58:53;;;;;;;;;;;12.60;90.70;;;;;;5006321;28;20289;-60
2022/01/04 01:01:19;;;;;;;;;;;12.60;90.80;;;;;;5003580;28;19936;-60
2022/01/04 01:03:44;;;;;;;;;;;12.60;90.90;;;;;;5005715;28;19955;-60
2022/01/04 01:06:11;;;;;;;;;;;12.60;91.40;;;;;;5022141;28;20198;-60
2022/01/04 01:08:37;;;;;;;;;;;12.60;91.00;;;;;;5019705;28;19928;-60
2022/01/04 01:11:04;;;;;;;;;;;12.60;91.00;;;;;;5005426;28;19932;-60
2022/01/04 01:13:30;;;;;;;;;;;12.70;91.00;;;;;;5005145;28;19917;-61
2022/01/04 01:15:55;;;;;;;;;;;12.60;91.00;;;;;;5004802;28;19909;-60
2022/01/04 01:18:21;;;;;;;;;;;12.60;91.10;;;;;;5021411;28;19909;-60
2022/01/04 01:20:47;;;;;;;;;;;12.60;91.10;;;;;;5006979;28;19917;-60
2022/01/04 01:23:12;;;;;;;;;;;12.60;90.90;;;;;;5003460;28;20007;-60
2022/01/04 01:25:38;;;;;;;;;;;12.60;90.90;;;;;;5019441;28;20007;-60
2022/01/04 01:28:03;;;;;;;;;;;12.60;91.00;;;;;;5006246;28;19913;-60
2022/01/04 01:30:31;;;;;;;;;;;12.60;91.00;;;;;;5021269;28;19998;-60
2022/01/04 01:32:56;;;;;;;;;;;12.60;91.00;;;;;;5023543;28;19919;-61
2022/01/04 01:35:21;;;;;;;;;;;12.60;91.10;;;;;;5005095;28;19913;-60
2022/01/04 01:37:47;;;;;;;;;;;12.60;91.10;;;;;;5019234;28;19921;-60
2022/01/04 01:40:12;;;;;;;;;;;12.60;91.10;;;;;;4989492;28;20425;-60
2022/01/04 01:42:39;;;;;;;;;;;12.60;91.10;;;;;;4989504;28;19924;-61
2022/01/04 01:45:05;;;;;;;;;;;12.60;91.10;;;;;;5008369;28;19923;-60
2022/01/04 01:47:30;;;;;;;;;;;12.60;91.10;;;;;;4992465;28;19990;-60
2022/01/04 01:49:56;;;;;;;;;;;12.60;91.20;;;;;;5023657;28;19952;-60
2022/01/04 01:52:21;;;;;;;;;;;12.60;91.20;;;;;;4993998;28;20345;-59
2022/01/04 01:54:47;;;;;;;;;;;12.60;91.20;;;;;;5026767;28;19913;-60
2022/01/04 01:57:12;;;;;;;;;;;12.60;91.30;;;;;;4992733;28;19999;-60
2022/01/04 01:59:38;;;;;;;;;;;12.60;91.20;;;;;;5008910;28;19935;-60
2022/01/04 02:02:03;;;;;;;;;;;12.60;91.30;;;;;;5007626;28;20254;-60
2022/01/04 02:04:29;;;;;;;;;;;12.60;91.30;;;;;;4992148;28;19928;-60
2022/01/04 02:06:54;;;;;;;;;;;12.60;91.30;;;;;;5008708;28;19939;-60
2022/01/04 02:09:20;;;;;;;;;;;12.60;91.30;;;;;;4992919;28;19996;-60
2022/01/04 02:11:45;;;;;;;;;;;12.50;91.30;;;;;;5007917;28;20403;-60
2022/01/04 02:14:11;;;;;;;;;;;12.60;91.30;;;;;;5007620;28;19928;-60
2022/01/04 02:16:36;;;;;;;;;;;12.60;91.30;;;;;;5025561;28;19966;-60
2022/01/04 02:19:03;;;;;;;;;;;12.60;91.30;;;;;;5008603;28;19914;-60
2022/01/04 02:21:29;;;;;;;;;;;12.70;91.30;;;;;;4993126;28;19992;-60
2022/01/04 02:23:55;;;;;;;;;;;12.50;91.20;;;;;;5006953;28;19918;-61
2022/01/04 02:26:20;;;;;;;;;;;12.60;91.20;;;;;;4993344;28;20006;-60
2022/01/04 02:28:46;;;;;;;;;;;12.60;91.20;;;;;;5007468;28;20008;-59
2022/01/04 02:31:11;;;;;;;;;;;12.50;91.20;;;;;;5025738;28;19909;-60
2022/01/04 02:33:37;;;;;;;;;;;12.60;91.30;;;;;;5009312;28;19925;-60
2022/01/04 02:36:02;;;;;;;;;;;12.50;91.10;;;;;;4992830;28;19909;-60
2022/01/04 02:38:28;;;;;;;;;;;12.50;91.10;;;;;;5022169;28;19928;-60
2022/01/04 02:40:53;;;;;;;;;;;12.50;91.10;;;;;;5007858;28;19917;-60
2022/01/04 02:43:19;;;;;;;;;;;12.50;91.10;;;;;;4991804;28;19925;-61
2022/01/04 02:45:44;;;;;;;;;;;12.50;91.20;;;;;;5022901;28;19947;-60
2022/01/04 02:48:10;;;;;;;;;;;12.50;91.10;;;;;;5009180;28;19913;-60
2022/01/04 02:50:35;;;;;;;;;;;12.50;91.20;;;;;;5009351;28;20476;-61
2022/01/04 02:53:01;;;;;;;;;;;12.50;91.10;;;;;;5006971;28;19928;-60
2022/01/04 02:55:26;;;;;;;;;;;12.50;91.00;;;;;;5023553;28;19909;-60
2022/01/04 02:57:52;;;;;;;;;;;12.50;91.00;;;;;;5008364;28;19915;-60
2022/01/04 03:00:17;;;;;;;;;;;12.50;91.00;;;;;;5008040;28;19960;-60
2022/01/04 03:02:43;;;;;;;;;;;12.50;90.90;;;;;;5006777;28;19929;-60
2022/01/04 03:05:08;;;;;;;;;;;12.50;90.80;;;;;;5006863;28;19917;-60
2022/01/04 03:07:34;;;;;;;;;;;12.50;90.70;;;;;;4991738;28;19928;-60
2022/01/04 03:09:59;;;;;;;;;;;12.50;90.80;;;;;;5024445;28;19917;-60
2022/01/04 03:12:25;;;;;;;;;;;12.50;90.70;;;;;;4991114;28;20405;-60
2022/01/04 03:14:50;;;;;;;;;;;12.50;90.80;;;;;;5008758;28;19936;-61
2022/01/04 03:17:16;;;;;;;;;;;12.50;90.80;;;;;;5006866;28;19917;-60
2022/01/04 03:19:41;;;;;;;;;;;12.50;90.90;;;;;;5021557;28;19913;-60
2022/01/04 03:22:06;;;;;;;;;;;12.50;90.90;;;;;;5024576;28;19963;-60
2022/01/04 03:24:32;;;;;;;;;;;12.50;90.90;;;;;;5007771;28;20356;-60
2022/01/04 03:26:57;;;;;;;;;;;12.50;90.90;;;;;;5007788;28;19948;-60
2022/01/04 03:29:23;;;;;;;;;;;12.50;90.80;;;;;;5007894;28;19921;-60
2022/01/04 03:31:49;;;;;;;;;;;12.40;90.80;;;;;;5022784;28;20004;-60
2022/01/04 03:34:14;;;;;;;;;;;12.50;90.80;;;;;;4992539;28;20374;-60
2022/01/04 03:36:40;;;;;;;;;;;12.50;90.70;;;;;;5022333;28;19917;-61
2022/01/04 03:39:06;;;;;;;;;;;12.50;90.70;;;;;;5006526;28;20301;-61
2022/01/04 03:41:32;;;;;;;;;;;12.40;90.60;;;;;;5006542;28;19917;-60
2022/01/04 03:43:57;;;;;;;;;;;12.50;90.50;;;;;;5006308;28;19994;-60
2022/01/04 03:46:23;;;;;;;;;;;12.50;90.50;;;;;;5021913;28;20306;-60
2022/01/04 03:48:48;;;;;;;;;;;12.40;90.50;;;;;;5022167;28;19933;-61
2022/01/04 03:51:14;;;;;;;;;;;12.50;90.50;;;;;;4991224;28;20417;-60
2022/01/04 03:53:39;;;;;;;;;;;12.40;90.40;;;;;;4992202;28;19917;-60
2022/01/04 03:56:05;;;;;;;;;;;12.50;90.30;;;;;;4990640;28;19925;-60
2022/01/04 03:58:30;;;;;;;;;;;12.50;90.30;;;;;;5006331;28;19909;-60
2022/01/04 04:00:56;;;;;;;;;;;12.40;90.30;;;;;;5005512;28;20341;-59
2022/01/04 04:03:21;;;;;;;;;;;12.40;90.30;;;;;;4991268;28;19928;-60
2022/01/04 04:05:47;;;;;;;;;;;12.40;90.30;;;;;;4991431;28;19917;-60
2022/01/04 04:08:12;;;;;;;;;;;12.40;90.30;;;;;;5004901;28;19921;-60
2022/01/04 04:10:38;;;;;;;;;;;12.40;90.00;;;;;;5007806;28;19979;-60
2022/01/04 04:13:03;;;;;;;;;;;12.40;90.00;;;;;;5005202;28;20414;-60
2022/01/04 04:15:29;;;;;;;;;;;12.40;90.10;;;;;;4991689;28;19917;-60
2022/01/04 04:17:54;;;;;;;;;;;12.40;90.20;;;;;;5006440;28;19987;-60
2022/01/04 04:20:20;;;;;;;;;;;12.40;90.30;;;;;;5004899;28;19929;-60
2022/01/04 04:22:46;;;;;;;;;;;12.40;90.30;;;;;;5006451;28;20774;-60
2022/01/04 04:25:12;;;;;;;;;;;12.40;90.30;;;;;;5023044;28;19920;-59
2022/01/04 04:27:37;;;;;;;;;;;12.40;90.30;;;;;;4990580;28;19921;-60
2022/01/04 04:30:04;;;;;;;;;;;12.40;90.40;;;;;;5006915;28;19991;-60
2022/01/04 04:32:29;;;;;;;;;;;12.40;90.30;;;;;;5022837;28;20310;-60
2022/01/04 04:34:55;;;;;;;;;;;12.40;90.40;;;;;;5006599;28;19963;-60
2022/01/04 04:37:20;;;;;;;;;;;12.40;90.50;;;;;;5005838;28;19969;-61
2022/01/04 04:39:46;;;;;;;;;;;12.40;90.50;;;;;;5022670;28;19920;-60
2022/01/04 04:42:11;;;;;;;;;;;12.40;90.60;;;;;;5006234;28;20011;-60
2022/01/04 04:44:37;;;;;;;;;;;12.40;90.50;;;;;;5005506;28;20459;-60
2022/01/04 04:47:03;;;;;;;;;;;12.40;90.60;;;;;;5005817;28;19917;-60
2022/01/04 04:49:28;;;;;;;;;;;12.40;90.60;;;;;;5021055;28;19979;-60
2022/01/04 04:51:59;;;;;;;;;;;12.40;90.60;;;;;;5020068;28;19913;-60
2022/01/04 04:54:25;;;;;;;;;;;12.40;90.60;;;;;;4989555;28;19913;-60
2022/01/04 04:56:50;;;;;;;;;;;12.40;90.70;;;;;;4990282;28;19920;-60
2022/01/04 04:59:16;;;;;;;;;;;12.40;90.80;;;;;;4989539;28;19913;-60
2022/01/04 05:01:41;;;;;;;;;;;12.40;90.80;;;;;;5019836;28;19972;-60
2022/01/04 05:04:07;;;;;;;;;;;12.40;90.80;;;;;;5006126;28;20575;-59
2022/01/04 05:06:32;;;;;;;;;;;12.30;90.90;;;;;;5005803;28;19909;-60
2022/01/04 05:08:58;;;;;;;;;;;12.30;90.80;;;;;;4989245;28;19920;-58
2022/01/04 05:11:23;;;;;;;;;;;12.30;90.90;;;;;;5004194;28;20321;-61
2022/01/04 05:13:49;;;;;;;;;;;12.40;91.00;;;;;;5022608;28;19963;-60
2022/01/04 05:16:14;;;;;;;;;;;12.30;91.00;;;;;;5021937;28;20016;-60
2022/01/04 05:18:39;;;;;;;;;;;12.30;91.10;;;;;;4989495;28;20542;-60
2022/01/04 05:21:05;;;;;;;;;;;12.30;91.10;;;;;;5009516;28;19913;-60
2022/01/04 05:23:31;;;;;;;;;;;12.30;91.10;;;;;;4991535;28;19968;-60
2022/01/04 05:25:56;;;;;;;;;;;12.30;91.10;;;;;;5004838;28;19924;-61
2022/01/04 05:28:22;;;;;;;;;;;12.30;91.10;;;;;;4993416;28;19959;-60
2022/01/04 05:30:47;;;;;;;;;;;12.20;91.10;;;;;;5009912;28;21193;-60
2022/01/04 05:33:13;;;;;;;;;;;12.30;91.20;;;;;;5007488;28;19920;-60
2022/01/04 05:35:38;;;;;;;;;;;12.30;91.20;;;;;;5006125;28;19927;-60
2022/01/04 05:38:04;;;;;;;;;;;12.30;91.20;;;;;;5007486;28;20283;-60
2022/01/04 05:40:29;;;;;;;;;;;12.30;91.30;;;;;;4992764;28;19917;-60
2022/01/04 05:42:55;;;;;;;;;;;12.30;91.30;;;;;;5004639;28;19927;-59
2022/01/04 05:45:20;;;;;;;;;;;12.30;91.30;;;;;;4992740;28;19979;-60
2022/01/04 05:47:46;;;;;;;;;;;12.30;91.40;;;;;;5023279;28;19917;-60
2022/01/04 05:50:11;;;;;;;;;;;12.20;91.40;;;;;;5009675;28;19917;-60
2022/01/04 05:52:36;;;;;;;;;;;12.20;91.50;;;;;;5007531;28;19917;-60
2022/01/04 05:55:02;;;;;;;;;;;12.20;91.60;;;;;;4992300;28;19917;-60
2022/01/04 05:57:28;;;;;;;;;;;12.20;91.60;;;;;;5008571;28;20436;-60
2022/01/04 05:59:53;;;;;;;;;;;12.20;91.60;;;;;;5008707;28;19923;-60
2022/01/04 06:02:19;;;;;;;;;;;12.20;91.60;;;;;;5005617;28;20435;-60
2022/01/04 06:04:44;;;;;;;;;;;12.20;91.50;;;;;;4989283;28;20003;-60
2022/01/04 06:07:10;;;;;;;;;;;12.20;91.60;;;;;;5009175;28;19921;-61
2022/01/04 06:09:42;;;;;;;;;;;12.20;91.60;;;;;;5009223;28;19978;-60
2022/01/04 06:14:52;;;;;;;;;;;12.20;91.60;;;;;;5025199;28;20004;-60
2022/01/04 06:17:18;;;;;;;;;;;12.20;91.60;;;;;;5007746;28;19996;-60
2022/01/04 06:19:44;;;;;;;;;;;12.20;91.70;;;;;;5021443;28;20302;-60
2022/01/04 06:22:09;;;;;;;;;;;12.20;91.70;;;;;;5008431;28;19916;-60
2022/01/04 06:24:36;;;;;;;;;;;12.20;91.70;;;;;;5027318;28;20008;-60
2022/01/04 06:27:04;;;;;;;;;;;12.10;91.80;;;;;;5007569;28;20368;-59
2022/01/04 06:29:29;;;;;;;;;;;12.20;91.80;;;;;;5008217;28;19998;-60
2022/01/04 06:31:55;;;;;;;;;;;12.10;91.80;;;;;;5006609;28;19928;-60
2022/01/04 06:34:20;;;;;;;;;;;12.10;91.90;;;;;;4993402;28;19947;-60
2022/01/04 06:36:46;;;;;;;;;;;12.10;91.90;;;;;;5008076;28;19933;-60
2022/01/04 06:39:11;;;;;;;;;;;12.10;91.90;;;;;;4992873;28;20470;-60
2022/01/04 06:41:36;;;;;;;;;;;12.10;92.00;;;;;;4988952;28;19917;-60
2022/01/04 06:44:02;;;;;;;;;;;12.10;92.00;;;;;;4991631;28;19921;-60
2022/01/04 06:46:27;;;;;;;;;;;12.10;92.10;;;;;;5007220;28;19918;-60
2022/01/04 06:48:53;;;;;;;;;;;12.10;92.20;;;;;;4991895;28;19921;-60
2022/01/04 06:51:18;;;;;;;;;;;12.10;92.20;;;;;;4992596;28;19932;-60
2022/01/04 06:53:44;;;;;;;;;;;12.10;92.20;;;;;;5007640;28;19917;-60
2022/01/04 06:56:10;;;;;;;;;;;12.10;92.20;;;;;;5026121;28;20375;-60
2022/01/04 06:58:35;;;;;;;;;;;12.10;92.30;;;;;;5006914;28;19952;-61
2022/01/04 07:01:00;;;;;;;;;;;12.00;92.30;;;;;;5007117;28;19929;-60
2022/01/04 07:03:26;;;;;;;;;;;12.00;92.40;;;;;;5008981;28;20265;-60
2022/01/04 07:05:51;;;;;;;;;;;12.00;92.40;;;;;;4991511;28;19957;-60
2022/01/04 07:08:17;;;;;;;;;;;12.00;92.40;;;;;;5007870;28;19975;-60
2022/01/04 07:10:42;;;;;;;;;;;12.00;92.50;;;;;;4991835;28;20530;-60
2022/01/04 07:13:08;;;;;;;;;;;12.00;92.50;;;;;;5004070;28;19920;-60
2022/01/04 07:15:33;;;;;;;;;;;12.00;92.60;;;;;;4991129;28;19935;-60
2022/01/04 07:17:58;;;;;;;;;;;12.10;92.60;;;;;;4988452;28;19969;-60
2022/01/04 07:20:24;;;;;;;;;;;12.10;92.60;;;;;;4988758;28;19929;-60
2022/01/04 07:22:49;;;;;;;;;;;12.10;92.70;;;;;;4990062;28;19925;-60
2022/01/04 07:25:15;;;;;;;;;;;12.10;92.80;;;;;;5007878;28;19913;-59
2022/01/04 07:27:40;;;;;;;;;;;12.10;92.70;;;;;;5021354;28;20335;-60
2022/01/04 07:30:06;;;;;;;;;;;12.10;92.80;;;;;;5006575;28;19921;-60
2022/01/04 07:32:31;;;;;;;;;;;12.10;92.80;;;;;;5004838;28;19921;-60
2022/01/04 07:34:57;;;;;;;;;;;12.10;92.80;;;;;;5022964;28;19948;-60
2022/01/04 07:37:22;;;;;;;;;;;12.10;92.90;;;;;;5006902;28;19987;-60
2022/01/04 07:39:48;;;;;;;;;;;12.10;92.90;;;;;;5021079;28;19928;-60
2022/01/04 07:42:14;;;;;;;;;;;12.10;92.90;;;;;;5021399;28;20541;-60
2022/01/04 07:44:39;;;;;;;;;;;12.10;92.90;;;;;;5013224;28;19925;-60
2022/01/04 07:47:04;;;;;;;;;;;12.10;92.90;;;;;;5005638;28;20488;-60
2022/01/04 07:49:30;;;;;;;;;;;12.10;93.00;;;;;;5001421;28;19927;-60
2022/01/04 07:51:56;;;;;;;;;;;12.00;93.00;;;;;;5003036;28;20340;-60
2022/01/04 07:54:21;;;;;;;;;;;12.10;93.00;;;;;;5006557;28;19928;-60
2022/01/04 07:56:47;;;;;;;;;;;12.00;93.00;;;;;;5005769;28;19913;-60
2022/01/04 07:59:12;;;;;;;;;;;12.10;93.00;;;;;;5004013;28;20361;-60
2022/01/04 08:01:38;;;;;;;;;;;12.10;93.00;;;;;;5003120;28;19929;-60
2022/01/04 08:04:04;;;;;;;;;;;12.10;93.00;;;;;;5004081;28;20297;-60
2022/01/04 08:06:30;;;;;;;;;;;12.20;93.00;;;;;;4989016;28;20345;-60
2022/01/04 08:08:55;;;;;;;;;;;12.10;93.00;;;;;;4989420;28;20011;-60
2022/01/04 08:11:21;;;;;;;;;;;12.10;93.00;;;;;;4987505;28;20460;-60
2022/01/04 08:13:46;;;;;;;;;;;12.10;93.10;;;;;;5017939;28;19921;-60
2022/01/04 08:16:14;;;;;;;;;;;12.10;93.20;;;;;;5021714;28;19913;-60
2022/01/04 08:18:40;;;;;;;;;;;12.10;93.20;;;;;;5003491;28;19913;-60
2022/01/04 08:21:07;;;;;;;;;;;12.10;93.20;;;;;;5006704;28;19913;-59
2022/01/04 08:23:32;;;;;;;;;;;12.10;93.20;;;;;;5014779;28;19960;-60
2022/01/04 08:25:58;;;;;;;;;;;12.10;93.20;;;;;;5003027;28;19968;-60
2022/01/04 08:28:23;;;;;;;;;;;12.10;93.20;;;;;;5005514;28;19925;-60
2022/01/04 08:30:48;;;;;;;;;;;12.10;93.20;;;;;;5005940;28;19988;-60
2022/01/04 08:33:14;;;;;;;;;;;12.10;93.30;;;;;;4988975;28;19917;-60
2022/01/04 08:35:39;;;;;;;;;;;12.10;93.30;;;;;;5005551;28;19917;-60
2022/01/04 08:38:05;;;;;;;;;;;12.10;93.40;;;;;;5001927;28;19932;-60
2022/01/04 08:40:31;;;;;;;;;;;12.10;93.30;;;;;;4988836;28;20436;-60
2022/01/04 08:42:56;;;;;;;;;;;12.10;93.40;;;;;;5003402;28;19921;-61
2022/01/04 08:45:23;;;;;;;;;;;12.10;93.40;;;;;;5016748;28;19917;-60
2022/01/04 08:47:49;;;;;;;;;;;12.10;93.40;;;;;;5004145;28;19917;-60
2022/01/04 08:50:15;;;;;;;;;;;12.10;93.50;;;;;;5002509;28;19989;-60
2022/01/04 08:52:40;;;;;;;;;;;12.10;93.50;;;;;;4987154;28;20446;-60
2022/01/04 08:55:06;;;;;;;;;;;12.10;93.50;;;;;;5018299;28;19917;-60
2022/01/04 08:57:32;;;;;;;;;;;12.10;93.50;;;;;;4988058;28;20388;-60
2022/01/04 08:59:57;;;;;;;;;;;12.10;93.50;;;;;;4989682;28;19994;-60
2022/01/04 09:02:23;;;;;;;;;;;12.10;93.50;;;;;;4984832;28;20311;-60
2022/01/04 09:04:48;;;;;;;;;;;12.10;93.50;;;;;;4985688;28;19921;-60
2022/01/04 09:07:14;;;;;;;;;;;12.10;93.60;;;;;;4998443;28;19965;-60
2022/01/04 09:09:40;;;;;;;;;;;12.10;93.50;;;;;;5013951;28;19960;-60
2022/01/04 09:12:05;;;;;;;;;;;12.10;93.50;;;;;;5000187;28;19944;-60
2022/01/04 09:15:28;;;;;;;;;;;12.20;93.50;;;;;;4985202;28;19921;-60
2022/01/04 09:20:07;;;;;;;;;;;12.20;93.50;;;;;;5018774;28;19920;-60
2022/01/04 09:22:33;;;;;;;;;;;12.20;93.50;;;;;;5002380;28;20260;-60
2022/01/04 09:24:58;;;;;;;;;;;12.20;93.50;;;;;;5001660;28;20019;-60
2022/01/04 09:27:23;;;;;;;;;;;12.20;93.60;;;;;;5018389;28;19917;-60
2022/01/04 09:29:50;;;;;;;;;;;12.20;93.50;;;;;;5000315;28;20351;-60
2022/01/04 09:32:17;;;;;;;;;;;12.20;93.50;;;;;;4986007;28;19925;-60
2022/01/04 09:34:45;;;;;;;;;;;12.20;93.40;;;;;;5002201;28;19921;-60
2022/01/04 09:37:11;;;;;;;;;;;12.20;93.50;;;;;;5001609;28;19917;-60
2022/01/04 09:39:36;;;;;;;;;;;12.30;93.60;;;;;;4988531;28;19921;-60
2022/01/04 09:42:02;;;;;;;;;;;12.30;93.70;;;;;;5001397;28;20281;-60
2022/01/04 09:44:27;;;;;;;;;;;12.30;93.70;;;;;;4988644;28;19921;-59
2022/01/04 09:46:53;;;;;;;;;;;12.30;93.70;;;;;;5001436;28;19913;-60
2022/01/04 09:49:19;;;;;;;;;;;12.30;93.70;;;;;;5002001;28;19928;-60
2022/01/04 09:51:44;;;;;;;;;;;12.30;93.70;;;;;;5016707;28;19968;-60
2022/01/04 09:54:10;;;;;;;;;;;12.30;93.70;;;;;;5019362;28;20133;-60
2022/01/04 09:56:35;;;;;;;;;;;12.40;93.70;;;;;;5002078;28;20284;-60
2022/01/04 09:59:00;;;;;;;;;;;12.40;93.70;;;;;;4997854;28;19917;-60
2022/01/04 10:01:27;;;;;;;;;;;12.40;93.70;;;;;;5002625;28;19932;-60
2022/01/04 10:03:52;;;;;;;;;;;12.40;93.60;;;;;;5015302;28;19925;-60
2022/01/04 10:06:19;;;;;;;;;;;12.40;93.70;;;;;;5021393;28;19920;-60
2022/01/04 10:08:50;;;;;;;;;;;12.50;93.70;;;;;;5021498;28;19920;-60
2022/01/04 10:11:16;;;;;;;;;;;12.50;93.70;;;;;;5020238;28;19967;-60
2022/01/04 10:13:41;;;;;;;;;;;12.50;93.70;;;;;;4991112;28;20662;-60
2022/01/04 10:16:14;;;;;;;;;;;12.50;93.60;;;;;;5000368;28;19921;-60
2022/01/04 10:18:40;;;;;;;;;;;12.50;93.60;;;;;;4990588;28;20016;-60
2022/01/04 10:21:12;;;;;;;;;;;12.50;93.80;;;;;;5008943;28;19913;-60
2022/01/04 10:23:54;;;;;;;;;;;12.50;93.80;;;;;;5021550;28;20497;-60
2022/01/04 10:26:26;;;;;;;;;;;12.60;94.10;;;;;;5005858;28;20047;-60
2022/01/04 10:28:52;;;;;;;;;;;12.60;93.80;;;;;;5004640;28;19924;-60
2022/01/04 10:31:18;;;;;;;;;;;12.60;93.70;;;;;;5024214;28;19938;-60
2022/01/04 10:33:43;;;;;;;;;;;12.60;93.60;;;;;;5005973;28;19971;-59
2022/01/04 10:36:13;;;;;;;;;;;12.60;93.60;;;;;;5004783;28;19961;-60
2022/01/04 10:38:39;;;;;;;;;;;12.60;93.60;;;;;;5021253;28;19917;-60
2022/01/04 10:41:05;;;;;;;;;;;12.70;93.60;;;;;;4989553;28;19920;-59
2022/01/04 10:43:31;;;;;;;;;;;12.70;93.50;;;;;;5020818;28;19932;-61
2022/01/04 10:45:57;;;;;;;;;;;12.70;93.50;;;;;;5014827;28;19925;-60
2022/01/04 10:48:23;;;;;;;;;;;12.70;93.50;;;;;;5003193;28;19994;-60
2022/01/04 10:50:59;;;;;;;;;;;12.70;93.60;;;;;;4988274;28;19921;-60
2022/01/04 10:53:36;;;;;;;;;;;12.70;93.70;;;;;;5022695;28;19917;-60
2022/01/04 10:56:02;;;;;;;;;;;12.80;93.60;;;;;;4989738;28;20421;-60
2022/01/04 10:58:29;;;;;;;;;;;12.80;93.60;;;;;;5020902;28;20224;-60
2022/01/04 11:00:56;;;;;;;;;;;12.80;93.50;;;;;;5005717;28;19921;-60
2022/01/04 11:03:23;;;;;;;;;;;12.80;93.60;;;;;;5012906;28;19925;-60
2022/01/04 11:05:52;;;;;;;;;;;12.80;93.50;;;;;;5004568;28;19913;-60
2022/01/04 11:08:17;;;;;;;;;;;12.90;93.40;;;;;;5022899;28;19917;-60
2022/01/04 11:10:43;;;;;;;;;;;12.90;93.40;;;;;;5005681;28;20380;-63
2022/01/04 11:13:08;;;;;;;;;;;12.90;93.40;;;;;;4991308;28;19921;-60
2022/01/04 11:15:34;;;;;;;;;;;12.90;93.30;;;;;;5004100;28;19914;-60
2022/01/04 11:17:59;;;;;;;;;;;13.00;93.40;;;;;;5019503;28;20356;-60
2022/01/04 11:20:25;;;;;;;;;;;13.00;93.40;;;;;;5006488;28;20441;-62
2022/01/04 11:22:50;;;;;;;;;;;13.00;93.30;;;;;;5007126;28;19921;-59
2022/01/04 11:25:17;;;;;;;;;;;13.00;93.10;;;;;;5017091;28;20304;-60
2022/01/04 11:27:42;;;;;;;;;;;13.00;93.00;;;;;;5004996;28;19967;-60
2022/01/04 11:30:15;;;;;;;;;;;13.00;92.90;;;;;;4990434;28;20008;-60
2022/01/04 11:32:41;;;;;;;;;;;13.10;93.00;;;;;;5021291;28;20070;-60
2022/01/04 11:35:12;;;;;;;;;;;13.10;93.20;;;;;;5005850;28;19956;-60
2022/01/04 11:37:41;;;;;;;;;;;13.10;93.10;;;;;;5005151;28;21048;-60
2022/01/04 11:40:25;;;;;;;;;;;13.10;93.10;;;;;;5021714;28;19921;-60
2022/01/04 11:42:51;;;;;;;;;;;13.10;93.20;;;;;;5023327;28;19913;-59
2022/01/04 11:45:18;;;;;;;;;;;13.10;93.10;;;;;;4989975;28;19932;-60
2022/01/04 11:47:47;;;;;;;;;;;13.20;92.90;;;;;;4989611;28;19963;-60
2022/01/04 11:50:13;;;;;;;;;;;13.20;92.70;;;;;;5006165;28;20722;-60
2022/01/04 11:52:40;;;;;;;;;;;13.20;92.60;;;;;;5018553;28;20782;-59
2022/01/04 11:55:15;;;;;;;;;;;13.20;92.70;;;;;;5004319;28;19913;-60
2022/01/04 11:57:41;;;;;;;;;;;13.30;92.60;;;;;;5017494;28;19913;-59
2022/01/04 12:00:06;;;;;;;;;;;13.30;92.60;;;;;;5013238;28;19921;-60
2022/01/04 12:02:33;;;;;;;;;;;13.30;92.40;;;;;;5016451;28;20010;-60
2022/01/04 12:05:18;;;;;;;;;;;13.30;92.30;;;;;;5003114;28;19928;-60
2022/01/04 12:07:48;;;;;;;;;;;13.30;92.10;;;;;;4996242;28;19956;-60
2022/01/04 12:10:20;;;;;;;;;;;13.40;92.40;;;;;;5000724;28;19925;-59
2022/01/04 12:13:03;;;;;;;;;;;13.40;92.30;;;;;;5020430;28;19975;-59
2022/01/04 12:15:32;;;;;;;;;;;13.40;92.40;;;;;;5003584;28;19917;-60
2022/01/04 12:17:57;;;;;;;;;;;13.50;92.20;;;;;;5020514;28;20365;-59
2022/01/04 12:20:41;;;;;;;;;;;13.50;92.20;;;;;;5004323;28;19920;-60
2022/01/04 12:23:25;;;;;;;;;;;13.50;92.10;;;;;;5020803;28;19928;-60
2022/01/04 12:26:07;;;;;;;;;;;13.50;92.10;;;;;;5016088;28;20414;-60
2022/01/04 12:28:33;;;;;;;;;;;13.50;91.90;;;;;;5017874;28;19982;-60
2022/01/04 12:31:18;;;;;;;;;;;13.50;91.70;;;;;;4988007;28;19974;-60
2022/01/04 12:33:50;;;;;;;;;;;13.60;91.60;;;;;;5019824;28;19921;-60
2022/01/04 12:36:28;;;;;;;;;;;13.60;91.90;;;;;;5016920;28;19956;-59
2022/01/04 12:38:54;;;;;;;;;;;13.60;91.80;;;;;;5005154;28;19929;-60
2022/01/04 12:41:19;;;;;;;;;;;13.60;91.70;;;;;;5019395;28;20442;-59
2022/01/04 12:43:50;;;;;;;;;;;13.60;91.60;;;;;;5005792;28;19921;-60
2022/01/04 12:46:25;;;;;;;;;;;13.60;91.50;;;;;;4986674;28;19913;-59
2022/01/04 12:48:52;;;;;;;;;;;13.60;91.50;;;;;;5004312;28;20004;-60
2022/01/04 12:51:21;;;;;;;;;;;13.60;91.40;;;;;;5004573;28;20055;-60
2022/01/04 12:53:46;;;;;;;;;;;13.70;91.40;;;;;;4999777;28;20414;-60
2022/01/04 12:56:12;;;;;;;;;;;13.70;91.30;;;;;;5002993;28;19925;-60
2022/01/04 12:58:37;;;;;;;;;;;13.70;91.10;;;;;;5001416;28;20435;-60
2022/01/04 13:01:03;;;;;;;;;;;13.70;91.00;;;;;;4987044;28;19917;-60
2022/01/04 13:03:31;;;;;;;;;;;13.70;90.90;;;;;;5019506;28;19921;-60
2022/01/04 13:06:00;;;;;;;;;;;13.70;90.90;;;;;;5004280;28;20059;-60
2022/01/04 13:08:26;;;;;;;;;;;13.70;90.60;;;;;;5001197;28;19936;-60
2022/01/04 13:11:04;;;;;;;;;;;13.70;90.30;;;;;;4987994;28;19963;-60
2022/01/04 13:13:30;;;;;;;;;;;13.70;90.30;;;;;;5002087;28;19921;-60
2022/01/04 13:16:14;;;;;;;;;;;13.70;90.40;;;;;;4987281;28;20043;-60
2022/01/04 13:18:40;;;;;;;;;;;13.80;90.50;;;;;;5019493;28;19943;-60
2022/01/04 13:21:05;;;;;;;;;;;13.80;90.50;;;;;;5005185;28;19913;-60
2022/01/04 13:23:35;;;;;;;;;;;13.80;90.50;;;;;;5004586;28;20000;-60
2022/01/04 13:26:01;;;;;;;;;;;13.80;90.40;;;;;;5002008;28;19917;-60
2022/01/04 13:28:26;;;;;;;;;;;13.80;90.40;;;;;;4985696;28;19925;-60
2022/01/04 13:30:52;;;;;;;;;;;13.80;90.30;;;;;;5004843;28;20276;-59
2022/01/04 13:33:22;;;;;;;;;;;13.80;90.20;;;;;;5021654;28;19921;-60
2022/01/04 13:35:48;;;;;;;;;;;13.90;90.10;;;;;;5005593;28;19924;-60
2022/01/04 13:38:19;;;;;;;;;;;13.90;90.10;;;;;;5001361;28;19917;-59
2022/01/04 13:40:45;;;;;;;;;;;14.10;90.10;;;;;;4994163;28;19918;-60
2022/01/04 13:43:17;;;;;;;;;;;13.90;90.00;;;;;;5014389;28;20441;-60
2022/01/04 13:45:44;;;;;;;;;;;13.90;90.00;;;;;;5002367;28;19933;-59
2022/01/04 13:48:10;;;;;;;;;;;14.00;90.00;;;;;;5006410;28;20510;-60
2022/01/04 13:50:40;;;;;;;;;;;13.90;89.80;;;;;;5017145;28;19925;-60
2022/01/04 13:53:06;;;;;;;;;;;13.90;89.40;;;;;;5003413;28;19913;-59
2022/01/04 13:55:45;;;;;;;;;;;13.90;89.30;;;;;;4992511;28;19990;-59
2022/01/04 13:58:11;;;;;;;;;;;13.90;89.30;;;;;;5016804;28;20059;-60
2022/01/04 14:00:38;;;;;;;;;;;14.00;89.30;;;;;;5002732;28;20012;-60
2022/01/04 14:03:23;;;;;;;;;;;14.00;89.50;;;;;;5002730;28;19925;-60
2022/01/04 14:05:49;;;;;;;;;;;14.00;89.20;;;;;;5002548;28;19925;-60
2022/01/04 14:08:14;;;;;;;;;;;14.00;89.00;;;;;;5003020;28;19913;-60
2022/01/04 14:10:47;;;;;;;;;;;14.00;88.90;;;;;;5003052;28;19913;-60
2022/01/04 14:13:28;;;;;;;;;;;14.10;88.60;;;;;;5015128;28;20474;-60
2022/01/04 14:16:07;;;;;;;;;;;14.10;88.50;;;;;;5003921;28;19910;-60
2022/01/04 14:18:32;;;;;;;;;;;14.10;87.60;;;;;;5004088;28;19921;-60
2022/01/04 14:20:58;;;;;;;;;;;14.20;87.60;;;;;;4985018;28;19940;-59